Time;durP1;ratioP1;P1;durP2;ratioP2;P2;SDS_P1;SDS_P2;PMS_P1;PMS_P2;Temp;Humidity;BMP_temperature;BMP_pressure;BME280_temperature;BME280_humidity;BME280_pressure;Samples;Min_cycle;Max_cycle;Signal;HPM_P1;HPM_P2
2023/02/19 00:01:18;;;;;;;;;;;;;;;;;;4921748;29;19934;-87
2023/02/19 00:03:44;;;;;;;;;;;;;;;;;;4924484;29;19919;-86
2023/02/19 00:06:10;;;;;;;;;;;;;;;;;;4932938;29;19926;-86
2023/02/19 00:08:37;;;;;;;;;;;;;;;;;;4907242;29;20430;-87
2023/02/19 00:11:03;;;;;;;;;;;;;;;;;;4907469;29;19926;-86
2023/02/19 00:13:29;;;;;;;;;;;;;;;;;;4924764;29;20374;-86
2023/02/19 00:15:55;;;;;;;;;;;;;;;;;;4921131;29;19934;-87
2023/02/19 00:18:22;;;;;;;;;;;;;;;;;;4903525;29;19938;-85
2023/02/19 00:20:48;;;;;;;;;;;;;;;;;;4934199;29;19923;-84
2023/02/19 00:23:14;;;;;;;;;;;;;;;;;;4939406;29;19919;-86
2023/02/19 00:25:40;;;;;;;;;;;;;;;;;;4917031;28;19933;-84
2023/02/19 00:28:07;;;;;;;;;;;;;;;;;;4903186;29;19918;-86
2023/02/19 00:30:33;;;;;;;;;;;;;;;;;;4901350;29;20206;-86
2023/02/19 00:32:59;;;;;;;;;;;;;;;;;;4905776;29;19915;-85
2023/02/19 00:35:25;;;;;;;;;;;;;;;;;;4928194;29;20410;-84
2023/02/19 00:37:52;;;;;;;;;;;;;;;;;;4914025;29;19922;-86
2023/02/19 00:40:18;;;;;;;;;;;;;;;;;;4937885;29;19966;-86
2023/02/19 00:42:44;;;;;;;;;;;;;;;;;;4924931;29;20036;-86
2023/02/19 00:45:10;;;;;;;;;;;;;;;;;;4910584;29;19994;-87
2023/02/19 00:47:37;;;;;;;;;;;;;;;;;;4916539;29;19979;-85
2023/02/19 00:50:03;;;;;;;;;;;;;;;;;;4901696;29;19938;-85
2023/02/19 00:52:29;;;;;;;;;;;;;;;;;;4927298;29;20011;-85
2023/02/19 00:54:55;;;;;;;;;;;;;;;;;;4915031;29;19922;-86
2023/02/19 00:57:22;;;;;;;;;;;;;;;;;;4926844;29;19918;-85
2023/02/19 00:59:48;;;;;;;;;;;;;;;;;;4925368;29;19927;-86
2023/02/19 01:02:14;;;;;;;;;;;;;;;;;;4928410;29;19919;-86
2023/02/19 01:04:40;;;;;;;;;;;;;;;;;;4928446;29;19950;-87
2023/02/19 01:07:06;;;;;;;;;;;;;;;;;;4916719;29;19933;-87
2023/02/19 01:09:33;;;;;;;;;;;;;;;;;;4938703;29;19931;-86
2023/02/19 01:11:59;;;;;;;;;;;;;;;;;;4926226;29;19958;-86
2023/02/19 01:14:25;;;;;;;;;;;;;;;;;;4937823;29;19970;-85
2023/02/19 01:16:51;;;;;;;;;;;;;;;;;;4936661;29;19930;-86
2023/02/19 01:19:18;;;;;;;;;;;;;;;;;;4922865;29;19921;-86
2023/02/19 01:21:44;;;;;;;;;;;;;;;;;;4925304;29;19926;-86
2023/02/19 01:24:11;;;;;;;;;;;;;;;;;;4914727;29;19922;-86
2023/02/19 01:26:37;;;;;;;;;;;;;;;;;;4912335;29;19974;-86
2023/02/19 01:29:03;;;;;;;;;;;;;;;;;;4930797;29;19926;-87
2023/02/19 01:31:30;;;;;;;;;;;;;;;;;;4928680;29;20293;-86
2023/02/19 01:33:56;;;;;;;;;;;;;;;;;;4910325;29;19919;-86
2023/02/19 01:36:22;;;;;;;;;;;;;;;;;;4928197;29;19925;-86
2023/02/19 01:38:48;;;;;;;;;;;;;;;;;;4916246;29;19923;-86
2023/02/19 01:41:15;;;;;;;;;;;;;;;;;;4933366;29;20148;-85
2023/02/19 01:43:41;;;;;;;;;;;;;;;;;;4943601;29;19918;-85
2023/02/19 01:46:07;;;;;;;;;;;;;;;;;;4930318;29;19994;-85
2023/02/19 01:48:33;;;;;;;;;;;;;;;;;;4929774;29;19926;-84
2023/02/19 01:51:00;;;;;;;;;;;;;;;;;;4934864;29;19923;-86
2023/02/19 01:53:26;;;;;;;;;;;;;;;;;;4918131;29;19930;-85
2023/02/19 01:55:52;;;;;;;;;;;;;;;;;;4933724;29;19918;-85
2023/02/19 01:58:18;;;;;;;;;;;;;;;;;;4927019;29;20306;-85
2023/02/19 02:00:45;;;;;;;;;;;;;;;;;;4923110;29;20379;-85
2023/02/19 02:03:11;;;;;;;;;;;;;;;;;;4932591;29;20642;-86
2023/02/19 02:05:37;;;;;;;;;;;;;;;;;;4915627;29;19923;-84
2023/02/19 02:10:48;;;;;;;;;;;;;;;;;;4946544;29;19930;-84
2023/02/19 02:13:15;;;;;;;;;;;;;;;;;;4915546;29;20463;-86
2023/02/19 02:15:41;;;;;;;;;;;;;;;;;;4918401;29;19918;-86
2023/02/19 02:18:07;;;;;;;;;;;;;;;;;;4919095;29;20282;-85
2023/02/19 02:20:33;;;;;;;;;;;;;;;;;;4915420;29;19919;-86
2023/02/19 02:23:00;;;;;;;;;;;;;;;;;;4915903;29;19918;-86
2023/02/19 02:25:26;;;;;;;;;;;;;;;;;;4947394;29;19994;-85
2023/02/19 02:27:52;;;;;;;;;;;;;;;;;;4931080;29;19922;-84
2023/02/19 02:30:19;;;;;;;;;;;;;;;;;;4930971;29;20421;-85
2023/02/19 02:32:52;;;;;;;;;;;;;;;;;;4913038;29;20302;-85
2023/02/19 02:35:19;;;;;;;;;;;;;;;;;;4915238;29;19938;-84
2023/02/19 02:37:45;;;;;;;;;;;;;;;;;;4914633;29;20386;-85
2023/02/19 02:40:11;;;;;;;;;;;;;;;;;;4912827;29;20591;-86
2023/02/19 02:42:37;;;;;;;;;;;;;;;;;;4925746;29;20031;-86
2023/02/19 02:47:51;;;;;;;;;;;;;;;;;;4929925;29;19929;-86
2023/02/19 02:50:17;;;;;;;;;;;;;;;;;;4907945;29;19931;-85
2023/02/19 02:55:29;;;;;;;;;;;;;;;;;;4938886;29;20399;-86
2023/02/19 02:57:55;;;;;;;;;;;;;;;;;;4908846;29;20426;-86
2023/02/19 03:00:21;;;;;;;;;;;;;;;;;;4910229;29;19922;-85
2023/02/19 03:02:47;;;;;;;;;;;;;;;;;;4924436;29;20568;-86
2023/02/19 03:08:15;;;;;;;;;;;;;;;;;;4867073;29;20032;-86
2023/02/19 03:10:41;;;;;;;;;;;;;;;;;;4892506;29;19927;-83
2023/02/19 03:21:31;;;;;;;;;;;;;;;;;;4944828;29;19915;-86
2023/02/19 03:26:42;;;;;;;;;;;;;;;;;;4937977;29;19918;-86
2023/02/19 03:29:24;;;;;;;;;;;;;;;;;;4915446;29;19922;-87
2023/02/19 03:31:51;;;;;;;;;;;;;;;;;;4936793;29;19926;-87
2023/02/19 03:34:17;;;;;;;;;;;;;;;;;;4915611;29;19919;-87
2023/02/19 03:36:43;;;;;;;;;;;;;;;;;;4909981;29;20375;-88
2023/02/19 03:39:09;;;;;;;;;;;;;;;;;;4924425;29;19973;-87
2023/02/19 03:41:36;;;;;;;;;;;;;;;;;;4928157;29;19919;-87
2023/02/19 03:44:02;;;;;;;;;;;;;;;;;;4920494;29;19926;-87
2023/02/19 03:46:28;;;;;;;;;;;;;;;;;;4936265;29;20331;-87
2023/02/19 03:48:56;;;;;;;;;;;;;;;;;;4929794;29;20418;-87
2023/02/19 03:51:22;;;;;;;;;;;;;;;;;;4910787;29;20009;-85
2023/02/19 03:53:48;;;;;;;;;;;;;;;;;;4943061;29;20429;-87
2023/02/19 03:56:15;;;;;;;;;;;;;;;;;;4921918;29;19918;-85
2023/02/19 03:58:41;;;;;;;;;;;;;;;;;;4917478;29;19934;-84
2023/02/19 04:01:07;;;;;;;;;;;;;;;;;;4933962;28;19970;-83
2023/02/19 04:03:33;;;;;;;;;;;;;;;;;;4921582;29;19939;-84
2023/02/19 04:06:00;;;;;;;;;;;;;;;;;;4931282;29;19958;-85
2023/02/19 04:08:26;;;;;;;;;;;;;;;;;;4910377;29;19939;-84
2023/02/19 04:10:52;;;;;;;;;;;;;;;;;;4923236;29;19926;-84
2023/02/19 04:13:18;;;;;;;;;;;;;;;;;;4928826;29;19930;-85
2023/02/19 04:15:45;;;;;;;;;;;;;;;;;;4929540;29;19914;-85
2023/02/19 04:18:11;;;;;;;;;;;;;;;;;;4927013;29;19919;-85
2023/02/19 04:20:37;;;;;;;;;;;;;;;;;;4910755;29;20013;-89
2023/02/19 04:23:03;;;;;;;;;;;;;;;;;;4921091;29;19926;-85
2023/02/19 04:25:30;;;;;;;;;;;;;;;;;;4928199;29;19926;-85
2023/02/19 04:27:56;;;;;;;;;;;;;;;;;;4931775;29;20397;-84
2023/02/19 04:30:22;;;;;;;;;;;;;;;;;;4912365;29;19953;-83
2023/02/19 04:32:49;;;;;;;;;;;;;;;;;;4917879;29;19930;-85
2023/02/19 04:35:15;;;;;;;;;;;;;;;;;;4943661;29;19924;-85
2023/02/19 04:37:42;;;;;;;;;;;;;;;;;;4911602;29;19930;-85
2023/02/19 04:40:08;;;;;;;;;;;;;;;;;;4904697;29;19997;-85
2023/02/19 04:42:34;;;;;;;;;;;;;;;;;;4940994;29;20387;-85
2023/02/19 04:45:01;;;;;;;;;;;;;;;;;;4920330;29;19944;-83
2023/02/19 04:47:27;;;;;;;;;;;;;;;;;;4904757;29;20455;-84
2023/02/19 04:49:53;;;;;;;;;;;;;;;;;;4927683;29;19926;-85
2023/02/19 04:52:19;;;;;;;;;;;;;;;;;;4932082;29;19938;-85
2023/02/19 04:54:46;;;;;;;;;;;;;;;;;;4933535;29;19948;-85
2023/02/19 04:57:12;;;;;;;;;;;;;;;;;;4919175;29;20375;-85
2023/02/19 04:59:38;;;;;;;;;;;;;;;;;;4940513;29;19987;-84
2023/02/19 05:02:05;;;;;;;;;;;;;;;;;;4913188;29;20378;-85
2023/02/19 05:04:31;;;;;;;;;;;;;;;;;;4928421;29;20013;-85
2023/02/19 05:07:00;;;;;;;;;;;;;;;;;;4918674;29;20062;-85
2023/02/19 05:09:27;;;;;;;;;;;;;;;;;;4926423;29;19954;-84
2023/02/19 05:11:53;;;;;;;;;;;;;;;;;;4906731;29;19919;-87
2023/02/19 05:14:19;;;;;;;;;;;;;;;;;;4914330;29;20436;-87
2023/02/19 05:16:46;;;;;;;;;;;;;;;;;;4943965;29;19923;-87
2023/02/19 05:19:12;;;;;;;;;;;;;;;;;;4927866;29;19922;-87
2023/02/19 05:21:40;;;;;;;;;;;;;;;;;;4913858;29;19930;-87
2023/02/19 05:24:07;;;;;;;;;;;;;;;;;;4939358;29;19925;-87
2023/02/19 05:26:33;;;;;;;;;;;;;;;;;;4914328;29;19918;-88
2023/02/19 05:28:59;;;;;;;;;;;;;;;;;;4930021;29;20660;-90
2023/02/19 05:31:25;;;;;;;;;;;;;;;;;;4923750;29;19922;-90
2023/02/19 05:33:52;;;;;;;;;;;;;;;;;;4925218;29;20357;-90
2023/02/19 05:36:18;;;;;;;;;;;;;;;;;;4916471;29;20401;-89
2023/02/19 05:38:44;;;;;;;;;;;;;;;;;;4914153;29;19966;-90
2023/02/19 05:41:10;;;;;;;;;;;;;;;;;;4932589;29;20338;-89
2023/02/19 05:43:37;;;;;;;;;;;;;;;;;;4929313;29;19919;-89
2023/02/19 05:46:03;;;;;;;;;;;;;;;;;;4916025;29;19926;-89
2023/02/19 05:48:29;;;;;;;;;;;;;;;;;;4910080;29;20013;-83
2023/02/19 05:50:56;;;;;;;;;;;;;;;;;;4922853;29;19938;-86
2023/02/19 05:53:22;;;;;;;;;;;;;;;;;;4914761;29;19919;-86
2023/02/19 05:55:48;;;;;;;;;;;;;;;;;;4923825;29;19925;-86
2023/02/19 05:58:15;;;;;;;;;;;;;;;;;;4910052;29;19919;-87
2023/02/19 06:00:41;;;;;;;;;;;;;;;;;;4910439;29;20315;-87
2023/02/19 06:03:08;;;;;;;;;;;;;;;;;;4926179;29;20667;-87
2023/02/19 06:05:34;;;;;;;;;;;;;;;;;;4912704;29;19919;-86
2023/02/19 06:08:00;;;;;;;;;;;;;;;;;;4913075;29;19934;-88
2023/02/19 06:10:27;;;;;;;;;;;;;;;;;;4908174;29;19946;-87
2023/02/19 06:12:53;;;;;;;;;;;;;;;;;;4918341;28;19919;-87
2023/02/19 06:15:20;;;;;;;;;;;;;;;;;;4930971;29;19919;-90
2023/02/19 06:17:46;;;;;;;;;;;;;;;;;;4927012;29;19922;-90
2023/02/19 06:20:13;;;;;;;;;;;;;;;;;;4929573;29;19922;-89
2023/02/19 06:22:39;;;;;;;;;;;;;;;;;;4914315;28;19919;-87
2023/02/19 06:25:06;;;;;;;;;;;;;;;;;;4920042;29;19915;-88
2023/02/19 06:27:33;;;;;;;;;;;;;;;;;;4930076;29;19923;-88
2023/02/19 06:29:59;;;;;;;;;;;;;;;;;;4943492;29;19934;-88
2023/02/19 06:32:25;;;;;;;;;;;;;;;;;;4917180;29;19922;-88
2023/02/19 06:34:51;;;;;;;;;;;;;;;;;;4920023;29;19922;-89
2023/02/19 06:37:18;;;;;;;;;;;;;;;;;;4932066;29;20001;-87
2023/02/19 06:39:44;;;;;;;;;;;;;;;;;;4911469;29;19919;-87
2023/02/19 06:42:10;;;;;;;;;;;;;;;;;;4915333;29;19926;-87
2023/02/19 06:44:37;;;;;;;;;;;;;;;;;;4922556;29;19918;-87
2023/02/19 06:47:03;;;;;;;;;;;;;;;;;;4929326;29;20342;-87
2023/02/19 06:49:29;;;;;;;;;;;;;;;;;;4930463;28;19929;-88
2023/02/19 06:51:56;;;;;;;;;;;;;;;;;;4927819;29;19930;-87
2023/02/19 06:54:24;;;;;;;;;;;;;;;;;;4916869;29;19923;-90
2023/02/19 06:56:50;;;;;;;;;;;;;;;;;;4909640;29;21253;-90
2023/02/19 06:59:17;;;;;;;;;;;;;;;;;;4912982;29;19927;-88
2023/02/19 07:01:44;;;;;;;;;;;;;;;;;;4939082;29;19927;-90
2023/02/19 07:04:10;;;;;;;;;;;;;;;;;;4915811;29;19929;-89
2023/02/19 07:06:37;;;;;;;;;;;;;;;;;;4917320;29;19930;-89
2023/02/19 07:09:03;;;;;;;;;;;;;;;;;;4915068;29;20403;-89
2023/02/19 07:11:29;;;;;;;;;;;;;;;;;;4915413;29;19930;-89
2023/02/19 07:13:55;;;;;;;;;;;;;;;;;;4907081;29;19926;-86
2023/02/19 07:16:22;;;;;;;;;;;;;;;;;;4898569;29;19934;-86
2023/02/19 07:18:48;;;;;;;;;;;;;;;;;;4939279;29;19942;-86
2023/02/19 07:21:14;;;;;;;;;;;;;;;;;;4915421;29;19929;-85
2023/02/19 07:23:41;;;;;;;;;;;;;;;;;;4902283;29;19923;-86
2023/02/19 07:26:07;;;;;;;;;;;;;;;;;;4921351;29;19927;-85
2023/02/19 07:28:33;;;;;;;;;;;;;;;;;;4915989;29;19918;-85
2023/02/19 07:31:00;;;;;;;;;;;;;;;;;;4926972;29;19933;-84
2023/02/19 07:33:26;;;;;;;;;;;;;;;;;;4933759;29;19919;-85
2023/02/19 07:35:52;;;;;;;;;;;;;;;;;;4923265;29;19919;-85
2023/02/19 07:38:18;;;;;;;;;;;;;;;;;;4925332;29;19934;-85
2023/02/19 07:40:44;;;;;;;;;;;;;;;;;;4908878;29;19978;-86
2023/02/19 07:43:11;;;;;;;;;;;;;;;;;;4915298;29;19922;-85
2023/02/19 07:45:37;;;;;;;;;;;;;;;;;;4911521;29;19923;-84
2023/02/19 07:48:03;;;;;;;;;;;;;;;;;;4914124;29;20601;-86
2023/02/19 07:50:29;;;;;;;;;;;;;;;;;;4921714;29;20410;-82
2023/02/19 07:52:56;;;;;;;;;;;;;;;;;;4911596;29;19921;-86
2023/02/19 07:55:22;;;;;;;;;;;;;;;;;;4904533;28;19926;-87
2023/02/19 07:57:48;;;;;;;;;;;;;;;;;;4933222;28;20315;-84
2023/02/19 08:00:18;;;;;;;;;;;;;;;;;;4923761;29;19925;-87
2023/02/19 08:03:00;;;;;;;;;;;;;;;;;;4909947;28;19919;-84
2023/02/19 08:05:26;;;;;;;;;;;;;;;;;;4910445;29;20398;-84
2023/02/19 08:07:53;;;;;;;;;;;;;;;;;;4926120;29;19930;-80
2023/02/19 08:13:23;;;;;;;;;;;;;;;;;;4922504;28;19923;-81
2023/02/19 08:15:50;;;;;;;;;;;;;;;;;;4916998;29;19932;-81
2023/02/19 08:18:16;;;;;;;;;;;;;;;;;;4923710;29;20010;-81
2023/02/19 08:20:43;;;;;;;;;;;;;;;;;;4904571;29;19965;-81
2023/02/19 08:23:09;;;;;;;;;;;;;;;;;;4908795;29;20264;-82
2023/02/19 08:25:35;;;;;;;;;;;;;;;;;;4905526;29;19919;-82
2023/02/19 08:28:02;;;;;;;;;;;;;;;;;;4911253;29;20284;-82
2023/02/19 08:30:28;;;;;;;;;;;;;;;;;;4925510;29;19927;-82
2023/02/19 08:32:54;;;;;;;;;;;;;;;;;;4924179;29;20323;-90
2023/02/19 08:35:20;;;;;;;;;;;;;;;;;;4923883;29;19958;-83
2023/02/19 08:37:47;;;;;;;;;;;;;;;;;;4907682;29;19919;-82
2023/02/19 08:40:13;;;;;;;;;;;;;;;;;;4925247;29;19919;-82
2023/02/19 08:42:58;;;;;;;;;;;;;;;;;;4929962;29;19921;-84
2023/02/19 08:45:46;;;;;;;;;;;;;;;;;;4928633;29;20374;-84
2023/02/19 08:48:32;;;;;;;;;;;;;;;;;;4928252;29;19918;-85
2023/02/19 08:51:19;;;;;;;;;;;;;;;;;;4926608;29;19938;-84
2023/02/19 08:54:05;;;;;;;;;;;;;;;;;;4936900;29;19925;-83
2023/02/19 08:56:52;;;;;;;;;;;;;;;;;;4922071;28;19976;-84
2023/02/19 08:59:38;;;;;;;;;;;;;;;;;;4937347;28;19922;-83
2023/02/19 09:02:25;;;;;;;;;;;;;;;;;;4940206;29;19921;-84
2023/02/19 09:05:11;;;;;;;;;;;;;;;;;;4942168;29;19925;-84
2023/02/19 09:07:58;;;;;;;;;;;;;;;;;;4928892;29;19934;-87
2023/02/19 09:10:44;;;;;;;;;;;;;;;;;;4926676;28;19923;-85
2023/02/19 09:13:31;;;;;;;;;;;;;;;;;;4927008;29;19923;-85
2023/02/19 09:16:17;;;;;;;;;;;;;;;;;;4937512;29;19926;-82
2023/02/19 09:19:04;;;;;;;;;;;;;;;;;;4938902;29;20005;-83
2023/02/19 09:21:50;;;;;;;;;;;;;;;;;;4939543;29;19929;-82
2023/02/19 09:24:37;;;;;;;;;;;;;;;;;;4939410;29;19926;-82
2023/02/19 09:27:23;;;;;;;;;;;;;;;;;;4927274;29;20008;-82
2023/02/19 09:30:10;;;;;;;;;;;;;;;;;;4926876;29;19922;-82
2023/02/19 09:32:57;;;;;;;;;;;;;;;;;;4940642;29;19926;-83
2023/02/19 09:35:43;;;;;;;;;;;;;;;;;;4920394;28;19915;-84
2023/02/19 09:38:32;;;;;;;;;;;;;;;;;;4936564;29;19919;-87
2023/02/19 09:41:19;;;;;;;;;;;;;;;;;;4922592;29;19923;-87
2023/02/19 09:44:06;;;;;;;;;;;;;;;;;;4922603;29;19922;-86
2023/02/19 09:46:53;;;;;;;;;;;;;;;;;;4921952;28;20671;-87
2023/02/19 09:49:39;;;;;;;;;;;;;;;;;;4921299;28;19923;-87
2023/02/19 09:52:26;;;;;;;;;;;;;;;;;;4924784;28;19966;-86
2023/02/19 09:55:12;;;;;;;;;;;;;;;;;;4913631;28;19926;-85
2023/02/19 09:57:59;;;;;;;;;;;;;;;;;;4925762;28;20618;-85
2023/02/19 10:00:45;;;;;;;;;;;;;;;;;;4941587;28;19929;-83
2023/02/19 10:03:33;;;;;;;;;;;;;;;;;;4927345;28;19922;-83
2023/02/19 10:06:22;;;;;;;;;;;;;;;;;;4936739;28;19923;-84
2023/02/19 10:09:08;;;;;;;;;;;;;;;;;;4938642;28;20378;-83
2023/02/19 10:11:55;;;;;;;;;;;;;;;;;;4924919;29;19923;-85
2023/02/19 10:14:21;;;;;;;;;;;;;;;;;;4934583;28;19930;-85
2023/02/19 10:16:47;;;;;;;;;;;;;;;;;;4909580;28;19992;-85
2023/02/19 10:19:32;;;;;;;;;;;;;;;;;;4940207;28;20138;-79
2023/02/19 10:22:17;;;;;;;;;;;;;;;;;;4938272;28;20426;-79
2023/02/19 10:25:03;;;;;;;;;;;;;;;;;;4933864;29;19919;-78
2023/02/19 10:27:50;;;;;;;;;;;;;;;;;;4933872;29;19926;-78
2023/02/19 10:30:36;;;;;;;;;;;;;;;;;;4939922;29;19949;-80
2023/02/19 10:33:23;;;;;;;;;;;;;;;;;;4938522;28;19927;-79
2023/02/19 10:36:09;;;;;;;;;;;;;;;;;;4930518;28;20334;-79
2023/02/19 10:38:56;;;;;;;;;;;;;;;;;;4927121;28;19998;-79
2023/02/19 10:41:42;;;;;;;;;;;;;;;;;;4939151;28;19922;-78
2023/02/19 10:44:29;;;;;;;;;;;;;;;;;;4945141;28;19918;-78
2023/02/19 10:47:16;;;;;;;;;;;;;;;;;;4943680;29;19922;-78
2023/02/19 10:50:02;;;;;;;;;;;;;;;;;;4942118;28;19919;-78
2023/02/19 10:52:49;;;;;;;;;;;;;;;;;;4945038;28;19923;-77
2023/02/19 10:55:36;;;;;;;;;;;;;;;;;;4944178;29;20599;-77
2023/02/19 10:58:26;;;;;;;;;;;;;;;;;;4942952;28;20499;-77
2023/02/19 11:01:12;;;;;;;;;;;;;;;;;;4941439;29;19929;-77
2023/02/19 11:03:59;;;;;;;;;;;;;;;;;;4937647;28;20365;-77
2023/02/19 11:06:45;;;;;;;;;;;;;;;;;;4937946;28;19946;-76
2023/02/19 11:09:32;;;;;;;;;;;;;;;;;;4941695;29;19934;-77
2023/02/19 11:12:18;;;;;;;;;;;;;;;;;;4936710;28;19922;-77
2023/02/19 11:15:05;;;;;;;;;;;;;;;;;;4945940;29;20393;-77
2023/02/19 11:17:51;;;;;;;;;;;;;;;;;;4937303;29;19930;-78
2023/02/19 11:20:38;;;;;;;;;;;;;;;;;;4939398;29;19918;-77
2023/02/19 11:23:24;;;;;;;;;;;;;;;;;;4938766;29;20290;-80
2023/02/19 11:26:11;;;;;;;;;;;;;;;;;;4939764;29;21280;-79
2023/02/19 11:28:57;;;;;;;;;;;;;;;;;;4923376;29;19925;-79
2023/02/19 11:31:45;;;;;;;;;;;;;;;;;;4929772;29;20458;-79
2023/02/19 11:34:33;;;;;;;;;;;;;;;;;;4935515;28;19954;-80
2023/02/19 11:37:20;;;;;;;;;;;;;;;;;;4929933;29;20007;-77
2023/02/19 11:40:07;;;;;;;;;;;;;;;;;;4923462;29;19922;-83
2023/02/19 11:42:53;;;;;;;;;;;;;;;;;;4935094;29;19918;-79
2023/02/19 11:45:40;;;;;;;;;;;;;;;;;;4938210;28;19959;-79
2023/02/19 11:48:26;;;;;;;;;;;;;;;;;;4939319;28;19926;-79
2023/02/19 11:51:13;;;;;;;;;;;;;;;;;;4936966;29;19938;-77
2023/02/19 11:53:59;;;;;;;;;;;;;;;;;;4925984;29;19925;-87
2023/02/19 11:56:46;;;;;;;;;;;;;;;;;;4923663;29;19937;-90
2023/02/19 11:59:32;;;;;;;;;;;;;;;;;;4925901;29;19922;-81
2023/02/19 12:02:19;;;;;;;;;;;;;;;;;;4939029;29;19960;-83
2023/02/19 12:05:05;;;;;;;;;;;;;;;;;;4942445;29;19923;-85
2023/02/19 12:07:52;;;;;;;;;;;;;;;;;;4940221;29;20503;-80
2023/02/19 12:10:38;;;;;;;;;;;;;;;;;;4941318;28;20426;-82
2023/02/19 12:13:25;;;;;;;;;;;;;;;;;;4939880;28;19919;-79
2023/02/19 12:16:11;;;;;;;;;;;;;;;;;;4927853;29;20776;-79
2023/02/19 12:18:58;;;;;;;;;;;;;;;;;;4927722;29;19923;-82
2023/02/19 12:21:44;;;;;;;;;;;;;;;;;;4922623;29;19922;-83
2023/02/19 12:24:31;;;;;;;;;;;;;;;;;;4937269;28;19922;-81
2023/02/19 12:27:17;;;;;;;;;;;;;;;;;;4927149;29;19926;-80
2023/02/19 12:30:04;;;;;;;;;;;;;;;;;;4925184;29;19923;-81
2023/02/19 12:32:50;;;;;;;;;;;;;;;;;;4935379;29;19926;-81
2023/02/19 12:35:37;;;;;;;;;;;;;;;;;;4937202;29;19922;-82
2023/02/19 12:38:23;;;;;;;;;;;;;;;;;;4924717;29;19915;-81
2023/02/19 12:41:11;;;;;;;;;;;;;;;;;;4941289;29;19918;-79
2023/02/19 12:43:58;;;;;;;;;;;;;;;;;;4938593;29;19919;-81
2023/02/19 12:46:44;;;;;;;;;;;;;;;;;;4925899;29;19922;-80
2023/02/19 12:49:31;;;;;;;;;;;;;;;;;;4926442;29;19926;-80
2023/02/19 12:52:17;;;;;;;;;;;;;;;;;;4938012;28;19930;-80
2023/02/19 12:55:04;;;;;;;;;;;;;;;;;;4925498;29;19918;-80
2023/02/19 12:57:50;;;;;;;;;;;;;;;;;;4945277;28;19915;-79
2023/02/19 13:00:38;;;;;;;;;;;;;;;;;;4944748;29;19914;-78
2023/02/19 13:03:24;;;;;;;;;;;;;;;;;;4930110;29;19945;-79
2023/02/19 13:06:11;;;;;;;;;;;;;;;;;;4925100;29;19930;-79
2023/02/19 13:08:57;;;;;;;;;;;;;;;;;;4941374;28;19960;-80
2023/02/19 13:11:44;;;;;;;;;;;;;;;;;;4940414;28;19933;-78
2023/02/19 13:14:30;;;;;;;;;;;;;;;;;;4940472;29;19967;-79
2023/02/19 13:17:17;;;;;;;;;;;;;;;;;;4936300;28;19930;-81
2023/02/19 13:20:03;;;;;;;;;;;;;;;;;;4936166;28;19941;-81
2023/02/19 13:25:56;;;;;;;;;;;;;;;;;;4938340;29;19918;-80
2023/02/19 13:28:42;;;;;;;;;;;;;;;;;;4937600;28;19923;-78
2023/02/19 13:31:29;;;;;;;;;;;;;;;;;;4939959;28;19927;-80
2023/02/19 13:34:15;;;;;;;;;;;;;;;;;;4940360;28;19926;-80
2023/02/19 13:37:02;;;;;;;;;;;;;;;;;;4939421;28;19919;-82
2023/02/19 13:39:48;;;;;;;;;;;;;;;;;;4943761;29;19993;-81
2023/02/19 13:42:35;;;;;;;;;;;;;;;;;;4932307;29;19919;-80
2023/02/19 13:45:21;;;;;;;;;;;;;;;;;;4929377;29;20182;-79
2023/02/19 13:48:08;;;;;;;;;;;;;;;;;;4940896;29;19926;-81
2023/02/19 13:50:54;;;;;;;;;;;;;;;;;;4940764;29;19930;-81
2023/02/19 13:53:41;;;;;;;;;;;;;;;;;;4941485;29;20386;-78
2023/02/19 13:56:28;;;;;;;;;;;;;;;;;;4929046;29;19933;-79
2023/02/19 13:59:14;;;;;;;;;;;;;;;;;;4940258;29;19959;-81
2023/02/19 14:02:01;;;;;;;;;;;;;;;;;;4944542;29;19923;-76
2023/02/19 14:04:50;;;;;;;;;;;;;;;;;;4943982;29;19919;-75
2023/02/19 14:07:36;;;;;;;;;;;;;;;;;;4942242;29;19949;-75
2023/02/19 14:10:25;;;;;;;;;;;;;;;;;;4942487;29;24340;-75
2023/02/19 14:13:11;;;;;;;;;;;;;;;;;;4940795;29;20405;-75
2023/02/19 14:15:58;;;;;;;;;;;;;;;;;;4942022;28;19930;-74
2023/02/19 14:18:44;;;;;;;;;;;;;;;;;;4930115;29;20395;-75
2023/02/19 14:21:31;;;;;;;;;;;;;;;;;;4942905;29;20397;-76
2023/02/19 14:24:17;;;;;;;;;;;;;;;;;;4942209;28;19938;-75
2023/02/19 14:27:04;;;;;;;;;;;;;;;;;;4941731;29;20575;-75
2023/02/19 14:29:50;;;;;;;;;;;;;;;;;;4940089;29;19926;-75
2023/02/19 14:32:37;;;;;;;;;;;;;;;;;;4943375;29;19985;-76
2023/02/19 14:35:23;;;;;;;;;;;;;;;;;;4943206;29;19922;-76
2023/02/19 14:38:10;;;;;;;;;;;;;;;;;;4942046;29;19941;-76
2023/02/19 14:40:56;;;;;;;;;;;;;;;;;;4927391;29;19918;-75
2023/02/19 14:43:43;;;;;;;;;;;;;;;;;;4946230;28;19923;-75
2023/02/19 14:46:29;;;;;;;;;;;;;;;;;;4920743;29;20302;-74
2023/02/19 14:49:16;;;;;;;;;;;;;;;;;;4936902;29;20386;-74
2023/02/19 14:52:02;;;;;;;;;;;;;;;;;;4933448;29;19923;-75
2023/02/19 14:54:49;;;;;;;;;;;;;;;;;;4941000;29;20271;-75
2023/02/19 14:57:35;;;;;;;;;;;;;;;;;;4941553;29;19921;-75
2023/02/19 15:00:22;;;;;;;;;;;;;;;;;;4925224;29;19994;-74
2023/02/19 15:03:08;;;;;;;;;;;;;;;;;;4932443;29;20480;-74
2023/02/19 15:05:55;;;;;;;;;;;;;;;;;;4933443;29;19919;-75
2023/02/19 15:08:41;;;;;;;;;;;;;;;;;;4916932;29;20235;-75
2023/02/19 15:11:28;;;;;;;;;;;;;;;;;;4928364;29;19930;-75
2023/02/19 15:14:14;;;;;;;;;;;;;;;;;;4918748;29;19929;-75
2023/02/19 15:17:01;;;;;;;;;;;;;;;;;;4915590;29;19930;-75
2023/02/19 15:19:47;;;;;;;;;;;;;;;;;;4921486;29;19919;-76
2023/02/19 15:22:34;;;;;;;;;;;;;;;;;;4927575;29;20005;-75
2023/02/19 15:25:20;;;;;;;;;;;;;;;;;;4918628;28;19926;-75
2023/02/19 15:28:07;;;;;;;;;;;;;;;;;;4918739;29;19942;-75
2023/02/19 15:30:53;;;;;;;;;;;;;;;;;;4925964;29;19931;-75
2023/02/19 15:33:40;;;;;;;;;;;;;;;;;;4926771;28;19915;-75
2023/02/19 15:36:26;;;;;;;;;;;;;;;;;;4925672;29;19962;-75
2023/02/19 15:39:13;;;;;;;;;;;;;;;;;;4927910;29;19922;-75
2023/02/19 15:41:59;;;;;;;;;;;;;;;;;;4928969;29;20407;-75
2023/02/19 15:44:46;;;;;;;;;;;;;;;;;;4924619;29;19919;-75
2023/02/19 15:47:32;;;;;;;;;;;;;;;;;;4930310;29;20091;-75
2023/02/19 15:50:19;;;;;;;;;;;;;;;;;;4912170;29;19923;-75
2023/02/19 15:53:06;;;;;;;;;;;;;;;;;;4915035;29;20310;-75
2023/02/19 15:55:52;;;;;;;;;;;;;;;;;;4923452;29;19923;-75
2023/02/19 15:58:39;;;;;;;;;;;;;;;;;;4926825;29;19923;-75
2023/02/19 16:01:25;;;;;;;;;;;;;;;;;;4925093;29;19922;-75
2023/02/19 16:04:12;;;;;;;;;;;;;;;;;;4910977;29;20286;-76
2023/02/19 16:06:59;;;;;;;;;;;;;;;;;;4933082;28;20655;-76
2023/02/19 16:09:45;;;;;;;;;;;;;;;;;;4946529;29;20622;-75
2023/02/19 16:12:32;;;;;;;;;;;;;;;;;;4946934;28;19937;-75
2023/02/19 16:15:18;;;;;;;;;;;;;;;;;;4943614;29;19919;-74
2023/02/19 16:18:05;;;;;;;;;;;;;;;;;;4938061;29;19914;-75
2023/02/19 16:20:51;;;;;;;;;;;;;;;;;;4947665;28;19919;-74
2023/02/19 16:23:38;;;;;;;;;;;;;;;;;;4946491;28;19918;-75
2023/02/19 16:26:24;;;;;;;;;;;;;;;;;;4936284;29;19929;-75
2023/02/19 16:29:11;;;;;;;;;;;;;;;;;;4949792;29;19920;-75
2023/02/19 16:31:57;;;;;;;;;;;;;;;;;;4937573;29;19926;-75
2023/02/19 16:34:45;;;;;;;;;;;;;;;;;;4939973;28;20138;-76
2023/02/19 16:37:32;;;;;;;;;;;;;;;;;;4933478;29;19919;-75
2023/02/19 16:40:18;;;;;;;;;;;;;;;;;;4942583;29;19922;-75
2023/02/19 16:43:05;;;;;;;;;;;;;;;;;;4928927;29;19922;-75
2023/02/19 16:45:51;;;;;;;;;;;;;;;;;;4936525;29;19923;-75
2023/02/19 16:48:38;;;;;;;;;;;;;;;;;;4946927;29;20002;-75
2023/02/19 16:51:24;;;;;;;;;;;;;;;;;;4940361;28;19937;-75
2023/02/19 16:54:11;;;;;;;;;;;;;;;;;;4938775;29;19919;-73
2023/02/19 16:56:57;;;;;;;;;;;;;;;;;;4936189;29;20260;-75
2023/02/19 16:59:44;;;;;;;;;;;;;;;;;;4942570;28;19921;-73
2023/02/19 17:02:32;;;;;;;;;;;;;;;;;;4935520;29;19949;-74
2023/02/19 17:05:18;;;;;;;;;;;;;;;;;;4943814;29;19932;-75
2023/02/19 17:08:05;;;;;;;;;;;;;;;;;;4935048;28;20402;-75
2023/02/19 17:10:51;;;;;;;;;;;;;;;;;;4941942;28;19926;-74
2023/02/19 17:13:38;;;;;;;;;;;;;;;;;;4932859;29;19928;-75
2023/02/19 17:16:25;;;;;;;;;;;;;;;;;;4941961;29;19923;-75
2023/02/19 17:19:12;;;;;;;;;;;;;;;;;;4934054;28;19974;-74
2023/02/19 17:21:58;;;;;;;;;;;;;;;;;;4938802;28;19929;-75
2023/02/19 17:24:47;;;;;;;;;;;;;;;;;;4944224;29;20397;-75
2023/02/19 17:27:33;;;;;;;;;;;;;;;;;;4939690;29;19925;-75
2023/02/19 17:30:20;;;;;;;;;;;;;;;;;;4927983;29;20336;-74
2023/02/19 17:33:06;;;;;;;;;;;;;;;;;;4944794;29;19928;-74
2023/02/19 17:35:53;;;;;;;;;;;;;;;;;;4928008;29;19927;-75
2023/02/19 17:38:39;;;;;;;;;;;;;;;;;;4941625;29;20299;-74
2023/02/19 17:41:25;;;;;;;;;;;;;;;;;;4945788;28;19938;-75
2023/02/19 17:44:12;;;;;;;;;;;;;;;;;;4937361;28;19918;-74
2023/02/19 17:46:58;;;;;;;;;;;;;;;;;;4944389;28;19919;-74
2023/02/19 17:49:45;;;;;;;;;;;;;;;;;;4941377;29;19914;-75
2023/02/19 17:52:31;;;;;;;;;;;;;;;;;;4936162;28;19927;-75
2023/02/19 17:55:18;;;;;;;;;;;;;;;;;;4940850;29;19934;-74
2023/02/19 17:58:04;;;;;;;;;;;;;;;;;;4941016;29;19929;-75
2023/02/19 18:00:51;;;;;;;;;;;;;;;;;;4934789;29;19965;-74
2023/02/19 18:03:37;;;;;;;;;;;;;;;;;;4946805;29;19937;-75
2023/02/19 18:06:24;;;;;;;;;;;;;;;;;;4942175;29;19937;-74
2023/02/19 18:09:14;;;;;;;;;;;;;;;;;;4939384;29;19938;-75
2023/02/19 18:12:00;;;;;;;;;;;;;;;;;;4945999;28;19927;-75
2023/02/19 18:14:46;;;;;;;;;;;;;;;;;;4942335;28;19918;-75
2023/02/19 18:17:33;;;;;;;;;;;;;;;;;;4944068;29;19925;-75